Time;durP1;ratioP1;P1;durP2;ratioP2;P2;SDS_P1;SDS_P2;PMS_P1;PMS_P2;Temp;Humidity;BMP_temperature;BMP_pressure;BME280_temperature;BME280_humidity;BME280_pressure;Samples;Min_cycle;Max_cycle;Signal;HPM_P1;HPM_P2
2023/11/29 00:00:54;;;;;;;3.33;3.13;;;;;;;-0.74;100.00;99791.22;6079197;23;20101;-67
2023/11/29 00:03:20;;;;;;;4.63;4.25;;;;;;;-1.09;100.00;99725.81;6100623;23;20623;-67
2023/11/29 00:05:49;;;;;;;4.15;3.95;;;;;;;-1.11;100.00;99714.72;6107414;23;20514;-69
2023/11/29 00:08:16;;;;;;;5.03;4.07;;;;;;;-1.42;100.00;99640.69;6104320;23;20042;-70
2023/11/29 00:10:42;;;;;;;3.95;3.67;;;;;;;-1.16;100.00;99678.78;6106993;23;20048;-69
2023/11/29 00:13:09;;;;;;;4.15;3.85;;;;;;;-0.61;100.00;99754.84;6076458;23;20318;-69
2023/11/29 00:15:35;;;;;;;5.10;4.82;;;;;;;-0.61;100.00;99754.84;6103536;23;20022;-69
2023/11/29 00:18:01;;;;;;;2.60;2.50;;;;;;;-0.68;100.00;99736.97;6081249;23;20263;-69
2023/11/29 00:20:30;;;;;;;3.58;3.38;;;;;;;-1.09;100.00;99653.75;6105324;23;20072;-69
2023/11/29 00:22:56;;;;;;;3.67;2.83;;;;;;;-0.51;100.00;99736.63;6083801;23;20037;-69
2023/11/29 00:25:23;;;;;;;4.35;4.15;;;;;;;-1.07;100.00;99629.63;6105072;23;20030;-69
2023/11/29 00:27:49;;;;;;;3.83;3.63;;;;;;;-0.82;100.00;99653.13;6103893;23;20025;-69
2023/11/29 00:30:16;;;;;;;3.50;3.30;;;;;;;-0.75;100.00;99653.84;6088287;23;20030;-69
2023/11/29 00:32:42;;;;;;;3.35;3.22;;;;;;;-0.60;100.00;99668.13;6099441;23;20073;-69
2023/11/29 00:35:09;;;;;;;3.45;3.25;;;;;;;-0.57;100.00;99668.03;6108837;23;20500;-69
2023/11/29 00:37:35;;;;;;;5.57;5.28;;;;;;;-0.65;100.00;99655.31;6081441;23;20033;-69
2023/11/29 00:40:02;;;;;;;3.28;3.08;;;;;;;-0.81;100.00;99611.03;6102819;23;20073;-69
2023/11/29 00:42:28;;;;;;;3.67;3.42;;;;;;;-0.55;100.00;99645.66;6105685;23;20033;-69
2023/11/29 00:44:55;;;;;;;3.00;2.85;;;;;;;-0.56;100.00;99633.66;6077243;23;20033;-69
2023/11/29 00:47:21;;;;;;;5.38;5.15;;;;;;;-0.46;100.00;99648.00;6102934;23;20092;-69
2023/11/29 00:49:48;;;;;;;3.20;3.00;;;;;;;-0.38;100.00;99644.38;6081417;23;20029;-69
2023/11/29 00:52:14;;;;;;;3.40;3.20;;;;;;;-0.78;100.00;99563.75;6104998;23;20088;-69
2023/11/29 00:54:41;;;;;;;4.28;3.97;;;;;;;-0.41;100.00;99616.97;6107125;23;20090;-69
2023/11/29 00:57:07;;;;;;;3.45;3.25;;;;;;;-0.83;100.00;99550.97;6100372;23;20130;-69
2023/11/29 00:59:33;;;;;;;4.93;4.72;;;;;;;-0.88;100.00;99527.06;6087102;23;20025;-68
2023/11/29 01:02:00;;;;;;;5.20;3.33;;;;;;;-0.44;100.00;99596.41;6077037;23;20436;-69
2023/11/29 01:04:27;;;;;;;3.85;3.53;;;;;;;-0.42;100.00;99592.09;6078507;23;20051;-69
2023/11/29 01:06:53;;;;;;;3.03;2.92;;;;;;;-0.41;100.00;99588.63;6105932;23;20070;-70
2023/11/29 01:09:20;;;;;;;3.70;3.47;;;;;;;-0.37;100.00;99592.81;6078426;23;20504;-70
2023/11/29 01:11:46;;;;;;;3.20;3.10;;;;;;;-0.37;100.00;99577.34;6105969;23;20021;-70
2023/11/29 01:14:13;;;;;;;3.67;3.45;;;;;;;-0.79;100.00;99512.28;6103636;23;20029;-68
2023/11/29 01:16:39;;;;;;;3.45;3.25;;;;;;;-0.32;100.00;99590.09;6107036;23;20292;-68
2023/11/29 01:19:06;;;;;;;3.45;3.35;;;;;;;-0.51;100.00;99548.50;6081240;23;20277;-68
2023/11/29 01:21:38;;;;;;;4.45;4.25;;;;;;;-1.45;100.00;99389.41;6104614;23;20383;-69
2023/11/29 01:24:05;;;;;;;2.83;2.72;;;;;;;-0.19;100.00;99580.34;6088096;23;20081;-68
2023/11/29 01:26:33;;;;;;;3.90;3.60;;;;;;;-0.18;100.00;99575.16;6108671;23;20096;-68
2023/11/29 01:28:59;;;;;;;3.22;2.88;;;;;;;-0.10;100.00;99570.63;6092893;23;21987;-68
2023/11/29 01:31:26;;;;;;;4.15;3.95;;;;;;;-0.38;100.00;99512.94;6106875;23;20201;-70
2023/11/29 01:33:53;;;;;;;3.22;3.03;;;;;;;-0.71;100.00;99472.53;6090937;23;20033;-69
2023/11/29 01:36:20;;;;;;;3.88;3.00;;;;;;;-0.11;100.00;99563.78;6111386;23;20181;-68
2023/11/29 01:38:47;;;;;;;2.92;2.83;;;;;;;-0.09;100.00;99556.84;6077378;23;20049;-68
2023/11/29 01:41:13;;;;;;;3.22;3.10;;;;;;;-0.07;100.00;99564.53;6112785;23;20025;-68
2023/11/29 01:43:40;;;;;;;2.67;2.58;;;;;;;-0.04;100.00;99565.31;6074579;23;20109;-69
2023/11/29 01:46:06;;;;;;;3.65;3.42;;;;;;;-0.01;100.00;99572.94;6111385;23;20025;-68
2023/11/29 01:48:33;;;;;;;4.53;4.05;;;;;;;0.05;100.00;99582.25;6081988;23;20021;-69
2023/11/29 01:50:59;;;;;;;3.50;3.30;;;;;;;-0.33;100.00;99500.78;6078568;23;20034;-68
2023/11/29 01:53:29;;;;;;;4.55;4.30;;;;;;;-0.59;100.00;99453.34;6109475;23;20024;-69
2023/11/29 01:55:57;;;;;;;3.60;3.40;;;;;;;-0.11;100.00;99531.97;6104660;23;20045;-68
2023/11/29 01:58:25;;;;;;;3.72;3.53;;;;;;;-0.07;100.00;99534.44;6110352;23;20025;-68
2023/11/29 02:00:53;;;;;;;3.80;3.60;;;;;;;-0.11;100.00;99537.97;6086113;23;20433;-68
2023/11/29 02:03:20;;;;;;;4.57;4.13;;;;;;;-0.17;100.00;99530.41;6077404;23;20248;-69
2023/11/29 02:05:47;;;;;;;2.72;2.63;;;;;;;-0.28;100.00;99555.63;6090178;23;20121;-68
2023/11/29 02:08:14;;;;;;;3.25;3.13;;;;;;;-0.84;100.00;99463.47;6105563;23;20046;-70
2023/11/29 02:10:40;;;;;;;3.45;3.15;;;;;;;-0.81;100.00;99474.50;6088753;23;20030;-68
2023/11/29 02:13:08;;;;;;;3.10;3.00;;;;;;;-0.35;100.00;99564.41;6111536;23;20006;-69
2023/11/29 02:15:34;;;;;;;4.40;4.20;;;;;;;-0.38;100.00;99574.78;6085828;23;20523;-68
2023/11/29 02:18:00;;;;;;;3.50;3.30;;;;;;;-0.53;100.00;99587.19;6106792;23;20010;-69
2023/11/29 02:20:27;;;;;;;2.90;2.80;;;;;;;-0.86;100.00;99553.63;6107421;23;20037;-68
2023/11/29 02:23:13;;;;;;;3.30;3.15;;;;;;;-0.36;100.00;99642.63;6087261;23;20535;-68
2023/11/29 02:25:39;;;;;;;3.33;3.22;;;;;;;-0.33;100.00;99658.03;6102489;23;20053;-68
2023/11/29 02:28:06;;;;;;;2.70;2.60;;;;;;;-0.34;100.00;99670.06;6109672;23;21994;-69
2023/11/29 02:30:32;;;;;;;4.38;4.00;;;;;;;-0.24;100.00;99683.56;6089500;23;20033;-69
2023/11/29 02:32:58;;;;;;;3.38;3.28;;;;;;;-0.20;100.00;99687.78;6106065;23;20166;-68
2023/11/29 02:35:25;;;;;;;5.57;5.00;;;;;;;-0.12;100.00;99696.19;6109070;23;20435;-69
2023/11/29 02:37:51;;;;;;;3.13;3.03;;;;;;;-0.07;100.00;99696.06;6077258;23;20101;-68
2023/11/29 02:40:18;;;;;;;2.70;2.60;;;;;;;-0.12;100.00;99690.16;6110372;23;20032;-69
2023/11/29 02:42:44;;;;;;;4.32;4.03;;;;;;;-0.54;100.00;99633.59;6089632;23;20046;-69
2023/11/29 02:45:11;;;;;;;2.95;2.85;;;;;;;-0.31;100.00;99658.84;6100362;23;20099;-68
2023/11/29 02:47:37;;;;;;;4.50;4.25;;;;;;;-0.21;100.00;99676.59;6087195;23;20055;-68
2023/11/29 02:50:05;;;;;;;3.92;3.63;;;;;;;-0.21;100.00;99675.78;6105722;23;20048;-68
2023/11/29 02:52:32;;;;;;;3.30;3.10;;;;;;;-0.28;100.00;99675.09;6109355;23;20029;-71
2023/11/29 02:54:58;;;;;;;3.63;3.47;;;;;;;-0.18;100.00;99693.75;6091077;23;20031;-69
2023/11/29 02:57:24;;;;;;;5.18;4.97;;;;;;;-0.17;100.00;99692.84;6102378;23;20365;-68
2023/11/29 02:59:51;;;;;;;5.20;4.90;;;;;;;-0.10;100.00;99704.72;6107623;23;20049;-69
2023/11/29 03:02:17;;;;;;;3.40;3.20;;;;;;;-0.67;100.00;99607.28;6087629;23;20058;-69
2023/11/29 03:04:44;;;;;;;3.67;3.53;;;;;;;-1.56;100.00;99457.44;6110275;23;20030;-69
2023/11/29 03:07:11;;;;;;;3.10;2.90;;;;;;;-0.12;100.00;99696.19;6089815;23;20565;-68
2023/11/29 03:09:37;;;;;;;4.75;4.55;;;;;;;-0.28;100.00;99680.25;6103140;23;20029;-68
2023/11/29 03:12:07;;;;;;;12.82;3.50;;;;;;;-0.01;100.00;99707.06;6111800;23;20025;-68
2023/11/29 03:14:33;;;;;;;3.20;3.00;;;;;;;0.06;100.00;99704.31;6080263;23;20026;-69
2023/11/29 03:17:00;;;;;;;3.83;3.63;;;;;;;0.12;100.00;99707.63;6109084;23;20391;-69
2023/11/29 03:19:26;;;;;;;6.25;5.65;;;;;;;0.14;100.00;99707.56;6103088;23;20465;-71
2023/11/29 03:21:53;;;;;;;3.78;3.58;;;;;;;-0.13;100.00;99653.22;6110953;23;20089;-68
2023/11/29 03:24:19;;;;;;;5.60;2.83;;;;;;;0.25;100.00;99710.72;6108879;23;20050;-68
2023/11/29 03:26:46;;;;;;;3.75;3.55;;;;;;;-0.01;100.00;99647.75;6083617;23;20037;-69
2023/11/29 03:29:12;;;;;;;3.20;3.00;;;;;;;0.29;100.00;99688.28;6107661;23;20054;-69
2023/11/29 03:31:39;;;;;;;9.10;4.25;;;;;;;0.29;100.00;99686.53;6078842;23;20233;-69
2023/11/29 03:34:05;;;;;;;3.65;3.45;;;;;;;-0.09;100.00;99613.56;6108878;23;20037;-68
2023/11/29 03:36:32;;;;;;;4.28;4.05;;;;;;;0.37;100.00;99694.06;6106555;23;20033;-68
2023/11/29 03:38:58;;;;;;;3.92;3.72;;;;;;;0.36;100.00;99680.34;6076433;23;20021;-68
2023/11/29 03:41:24;;;;;;;5.22;4.93;;;;;;;-0.27;100.00;99570.22;6106228;23;20172;-68
2023/11/29 03:43:51;;;;;;;4.05;3.75;;;;;;;0.16;100.00;99628.38;6076393;23;20315;-69
2023/11/29 03:46:18;;;;;;;3.05;2.95;;;;;;;-0.01;100.00;99583.25;6108515;23;20052;-68
2023/11/29 03:48:44;;;;;;;3.03;2.92;;;;;;;0.49;100.00;99667.94;6092598;23;20033;-68
2023/11/29 03:51:10;;;;;;;3.63;3.42;;;;;;;0.52;100.00;99662.69;6100764;23;20017;-68
2023/11/29 03:53:37;;;;;;;4.80;4.45;;;;;;;0.60;100.00;99659.88;6080040;23;20084;-68
2023/11/29 03:56:04;;;;;;;4.53;4.22;;;;;;;-0.49;100.00;99470.25;6102917;23;20037;-68
2023/11/29 03:58:30;;;;;;;4.38;4.07;;;;;;;0.66;100.00;99643.38;6066479;23;20053;-68
2023/11/29 04:00:56;;;;;;;15.25;3.50;;;;;;;0.36;100.00;99581.41;6106059;23;20056;-67
2023/11/29 04:03:23;;;;;;;5.50;5.00;;;;;;;0.69;100.00;99636.38;6070647;23;20033;-68
2023/11/29 04:05:49;;;;;;;4.03;3.75;;;;;;;0.01;100.00;99518.75;6107671;23;20033;-68
2023/11/29 04:08:17;;;;;;;4.22;3.92;;;;;;;0.71;100.00;99629.44;6078589;23;20034;-68
2023/11/29 04:10:44;;;;;;;4.13;3.83;;;;;;;0.75;100.00;99614.72;6107657;23;20032;-70
2023/11/29 04:13:10;;;;;;;5.15;4.60;;;;;;;0.65;100.00;99596.06;6107203;23;20024;-69
2023/11/29 04:15:37;;;;;;;4.18;3.97;;;;;;;0.33;100.00;99527.31;6075640;23;20548;-68
2023/11/29 04:18:03;;;;;;;5.18;3.90;;;;;;;0.97;100.00;99604.59;6107723;23;20032;-67
2023/11/29 04:20:30;;;;;;;3.90;3.70;;;;;;;0.98;100.00;99593.34;6102693;23;20163;-67
2023/11/29 04:22:56;;;;;;;3.55;3.45;;;;;;;0.74;100.00;99545.88;6107846;23;20017;-67
2023/11/29 04:25:23;;;;;;;5.57;5.18;;;;;;;0.91;100.00;99558.28;6106824;23;20038;-69
2023/11/29 04:27:49;;;;;;;3.67;3.50;;;;;;;1.13;100.00;99579.97;6079703;23;20026;-67
2023/11/29 04:30:17;;;;;;;4.18;3.88;;;;;;;0.49;100.00;99461.44;6110557;23;20100;-68
2023/11/29 04:32:43;;;;;;;4.60;4.30;;;;;;;1.13;100.00;99567.03;6084466;23;20085;-68
2023/11/29 04:35:10;;;;;;;4.47;4.18;;;;;;;1.30;100.00;99552.72;6110042;23;20448;-69
2023/11/29 04:37:36;;;;;;;4.55;4.35;;;;;;;1.27;100.00;99548.50;6108038;23;20202;-68
2023/11/29 04:40:04;;;;;;;5.05;4.00;;;;;;;1.34;100.00;99549.16;6111437;23;20040;-68
2023/11/29 04:42:30;;;;;;;3.67;3.50;;;;;;;1.36;100.00;99552.53;6084634;23;20107;-68
2023/11/29 04:44:57;;;;;;;3.88;3.20;;;;;;;1.35;100.00;99540.50;6104564;23;20033;-69
2023/11/29 04:47:25;;;;;;;5.10;4.80;;;;;;;0.95;100.00;99464.31;6055856;23;20046;-69
2023/11/29 04:49:51;;;;;;;2.85;2.75;;;;;;;1.31;100.00;99529.41;6105855;23;20167;-68
2023/11/29 04:52:18;;;;;;;8.35;4.97;;;;;;;0.96;100.00;99465.97;6057237;23;20108;-68
2023/11/29 04:54:44;;;;;;;3.65;3.45;;;;;;;1.24;100.00;99517.59;6115731;23;20543;-68
2023/11/29 04:57:11;;;;;;;4.45;4.15;;;;;;;0.96;100.00;99487.50;6113821;23;20036;-68
2023/11/29 04:59:40;;;;;;;3.88;3.72;;;;;;;0.21;100.00;99357.38;6117748;23;20073;-68
2023/11/29 05:02:06;;;;;;;3.95;3.75;;;;;;;1.12;100.00;99526.59;6066827;23;20230;-68
2023/11/29 05:04:33;;;;;;;4.32;3.95;;;;;;;0.68;100.00;99477.22;6117414;23;20148;-69
2023/11/29 05:06:59;;;;;;;3.80;3.60;;;;;;;1.04;100.00;99541.47;6097163;23;20175;-68
2023/11/29 05:09:26;;;;;;;6.05;5.40;;;;;;;0.67;100.00;99506.50;6108553;23;20237;-68
2023/11/29 05:11:52;;;;;;;3.78;3.53;;;;;;;-0.18;100.00;99363.72;6099934;23;20151;-68
2023/11/29 05:14:19;;;;;;;2.90;2.80;;;;;;;0.55;100.00;99497.38;6110964;23;20025;-68
2023/11/29 05:16:46;;;;;;;5.28;4.97;;;;;;;-0.35;100.00;99366.78;6092976;23;20476;-68
2023/11/29 05:19:12;;;;;;;3.60;3.40;;;;;;;0.50;100.00;99504.44;6117294;23;20664;-68
2023/11/29 05:21:39;;;;;;;4.13;3.90;;;;;;;1.06;100.00;99591.38;6081721;23;20036;-68
2023/11/29 05:24:06;;;;;;;4.25;3.95;;;;;;;1.17;100.00;99609.97;6115248;23;20409;-68
2023/11/29 05:26:35;;;;;;;8.32;4.93;;;;;;;0.77;100.00;99548.38;6087062;23;20362;-68
2023/11/29 05:29:02;;;;;;;3.20;3.10;;;;;;;1.25;100.00;99598.56;6084712;23;20009;-68
2023/11/29 05:31:31;;;;;;;7.22;5.18;;;;;;;0.39;100.00;99445.38;6109226;23;20195;-70
2023/11/29 05:33:58;;;;;;;3.35;3.13;;;;;;;1.25;100.00;99586.47;6096536;23;20083;-68
2023/11/29 05:36:25;;;;;;;5.20;4.80;;;;;;;0.96;100.00;99548.63;6116057;23;20026;-67
2023/11/29 05:38:51;;;;;;;4.00;3.70;;;;;;;1.15;100.00;99569.59;6114269;23;20025;-68
2023/11/29 05:41:18;;;;;;;6.65;4.43;;;;;;;1.27;100.00;99596.78;6093841;23;20026;-68
2023/11/29 05:43:44;;;;;;;4.22;3.92;;;;;;;0.89;100.00;99522.16;6114346;23;20118;-68
2023/11/29 05:46:11;;;;;;;3.80;3.58;;;;;;;1.30;100.00;99594.09;6091238;23;20022;-67
2023/11/29 05:48:38;;;;;;;4.28;3.97;;;;;;;1.26;100.00;99583.00;6110616;23;20431;-67
2023/11/29 05:51:05;;;;;;;5.32;4.88;;;;;;;1.27;100.00;99599.38;6109737;23;20435;-68
2023/11/29 05:53:31;;;;;;;5.57;5.28;;;;;;;1.24;100.00;99583.94;6086102;23;20034;-67
2023/11/29 05:55:58;;;;;;;5.15;3.85;;;;;;;1.37;100.00;99593.84;6087515;23;20057;-69
2023/11/29 05:58:24;;;;;;;4.80;4.55;;;;;;;1.24;100.00;99569.28;6116838;23;20025;-69
2023/11/29 06:00:50;;;;;;;7.10;4.28;;;;;;;1.04;100.00;99505.31;6115178;23;20017;-69
2023/11/29 06:03:17;;;;;;;5.85;4.78;;;;;;;1.10;100.00;99497.41;6084899;23;20018;-68
2023/11/29 06:05:43;;;;;;;4.55;4.15;;;;;;;1.65;100.00;99558.50;6114262;23;20515;-69
2023/11/29 06:08:10;;;;;;;3.60;3.30;;;;;;;1.28;100.00;99495.06;6106404;23;20535;-68
2023/11/29 06:10:39;;;;;;;4.80;3.42;;;;;;;1.46;100.00;99502.19;6089128;23;20827;-69
2023/11/29 06:13:05;;;;;;;4.45;3.85;;;;;;;1.46;100.00;99517.72;6109224;23;20057;-68
2023/11/29 06:15:31;;;;;;;5.63;5.25;;;;;;;1.39;100.00;99499.00;6106551;23;20021;-70
2023/11/29 06:17:59;;;;;;;4.07;3.88;;;;;;;1.30;100.00;99482.94;6078815;23;20076;-69
2023/11/29 06:20:27;;;;;;;5.05;4.63;;;;;;;1.70;100.00;99520.38;6105995;23;20029;-69
2023/11/29 06:22:53;;;;;;;6.00;3.90;;;;;;;1.70;100.00;99507.44;6108183;23;20013;-69
2023/11/29 06:25:20;;;;;;;4.15;3.90;;;;;;;1.10;100.00;99419.88;6081040;23;20040;-68
2023/11/29 06:27:46;;;;;;;3.70;3.40;;;;;;;0.42;100.00;99304.22;6109693;23;20076;-68
2023/11/29 06:30:13;;;;;;;4.95;4.55;;;;;;;1.68;100.00;99527.34;6108963;23;20559;-68
2023/11/29 06:32:41;;;;;;;4.40;4.18;;;;;;;1.74;100.00;99502.09;6107456;23;20021;-69
2023/11/29 06:35:12;;;;;;;3.47;3.28;;;;;;;1.71;100.00;99494.44;6085480;23;20095;-68
2023/11/29 06:37:38;;;;;;;3.65;3.45;;;;;;;1.49;100.00;99471.09;6107970;23;20419;-69
2023/11/29 06:40:10;;;;;;;3.33;3.13;;;;;;;1.53;100.00;99475.25;6087775;23;20084;-69
2023/11/29 06:42:38;;;;;;;3.70;3.42;;;;;;;1.61;100.00;99494.84;6111371;23;20045;-68
2023/11/29 06:45:05;;;;;;;2.90;2.80;;;;;;;1.58;100.00;99490.59;6082383;23;20036;-69
2023/11/29 06:47:32;;;;;;;9.35;6.50;;;;;;;1.29;100.00;99443.34;6109374;23;20053;-69
2023/11/29 06:49:58;;;;;;;3.78;3.47;;;;;;;1.61;100.00;99511.19;6085943;23;20041;-68
2023/11/29 06:52:26;;;;;;;3.83;3.63;;;;;;;1.56;100.00;99508.78;6113925;23;20071;-68
2023/11/29 06:54:53;;;;;;;3.63;3.42;;;;;;;1.55;100.00;99521.75;6080661;23;20026;-69
2023/11/29 06:57:19;;;;;;;3.90;3.65;;;;;;;1.58;100.00;99514.75;6106935;23;20097;-69
2023/11/29 06:59:46;;;;;;;4.15;3.88;;;;;;;1.52;100.00;99507.16;6083314;23;20036;-68
2023/11/29 07:02:12;;;;;;;3.88;3.67;;;;;;;1.65;100.00;99548.97;6107068;23;20018;-69
2023/11/29 07:04:43;;;;;;;3.55;3.35;;;;;;;0.90;100.00;99423.13;6094365;23;20093;-69
2023/11/29 07:07:09;;;;;;;3.38;3.13;;;;;;;1.11;100.00;99462.91;6114259;23;20021;-68
2023/11/29 07:09:38;;;;;;;4.95;4.53;;;;;;;1.61;100.00;99536.22;6078957;23;20714;-68
2023/11/29 07:12:05;;;;;;;3.30;3.10;;;;;;;1.08;100.00;99451.81;6109273;23;20373;-68
2023/11/29 07:14:31;;;;;;;8.85;4.80;;;;;;;1.28;100.00;99485.56;6084037;23;20093;-68
2023/11/29 07:16:58;;;;;;;4.22;4.03;;;;;;;1.68;100.00;99550.59;6111072;23;20056;-69
2023/11/29 07:19:24;;;;;;;5.55;5.25;;;;;;;1.61;100.00;99543.97;6108018;23;20197;-68
2023/11/29 07:21:51;;;;;;;4.90;4.55;;;;;;;1.68;100.00;99563.53;6083731;23;20025;-69
2023/11/29 07:24:17;;;;;;;4.00;3.80;;;;;;;1.73;100.00;99564.25;6086737;23;20026;-68
2023/11/29 07:26:45;;;;;;;3.88;3.58;;;;;;;1.71;100.00;99558.28;6105174;23;20013;-68
2023/11/29 07:29:12;;;;;;;4.85;3.38;;;;;;;0.33;100.00;99337.19;6110959;23;20021;-68
2023/11/29 07:31:38;;;;;;;4.57;4.32;;;;;;;1.35;100.00;99500.00;6083220;23;20037;-68
2023/11/29 07:34:05;;;;;;;3.63;3.33;;;;;;;1.17;100.00;99477.34;6110204;23;20021;-67
2023/11/29 07:36:31;;;;;;;3.97;3.72;;;;;;;1.30;100.00;99477.78;6091321;23;20093;-68
2023/11/29 07:38:58;;;;;;;4.10;3.90;;;;;;;0.90;100.00;99428.31;6107229;23;20252;-68
2023/11/29 07:41:25;;;;;;;4.88;4.68;;;;;;;1.83;100.00;99562.19;6112090;23;20029;-68
2023/11/29 07:43:52;;;;;;;4.88;4.35;;;;;;;1.91;100.00;99565.34;6104084;23;20021;-68
2023/11/29 07:46:18;;;;;;;3.45;3.33;;;;;;;1.79;100.00;99533.81;6087863;23;20102;-68
2023/11/29 07:48:45;;;;;;;3.45;3.25;;;;;;;1.96;100.00;99569.44;6107467;23;20077;-68
2023/11/29 07:51:11;;;;;;;4.03;3.83;;;;;;;1.35;100.00;99468.97;6077235;23;20022;-68
2023/11/29 07:53:37;;;;;;;5.45;4.97;;;;;;;1.95;100.00;99562.59;6102682;23;20042;-68
2023/11/29 07:56:04;;;;;;;3.13;2.92;;;;;;;1.54;100.00;99489.00;6101843;23;20018;-67
2023/11/29 07:58:32;;;;;;;6.07;4.82;;;;;;;1.79;100.00;99522.63;6105209;23;20010;-68
2023/11/29 08:01:02;;;;;;;4.32;3.92;;;;;;;1.97;100.00;99567.72;6094310;23;20033;-68
2023/11/29 08:03:29;;;;;;;6.55;5.15;;;;;;;2.04;100.00;99539.88;6099584;23;20124;-68
2023/11/29 08:05:55;;;;;;;4.35;4.15;;;;;;;2.04;100.00;99551.06;6107204;23;20027;-68
2023/11/29 08:08:22;;;;;;;4.53;4.10;;;;;;;1.95;100.00;99535.88;6085981;23;20499;-68
2023/11/29 08:10:48;;;;;;;4.25;3.85;;;;;;;2.23;100.00;99561.63;6106915;23;20037;-68
2023/11/29 08:13:15;;;;;;;3.75;3.55;;;;;;;0.83;100.00;99348.50;6108237;23;20033;-68
2023/11/29 08:15:41;;;;;;;4.22;4.00;;;;;;;2.20;100.00;99543.59;6098517;23;20238;-68
2023/11/29 08:18:09;;;;;;;3.97;3.67;;;;;;;2.19;100.00;99536.75;6101283;23;20032;-67
2023/11/29 08:20:35;;;;;;;4.07;3.88;;;;;;;2.23;100.00;99535.72;6100981;23;20126;-68
2023/11/29 08:23:02;;;;;;;5.45;5.15;;;;;;;2.26;100.00;99538.19;6084035;23;20033;-69
2023/11/29 08:25:29;;;;;;;5.82;5.53;;;;;;;2.27;100.00;99552.84;6098995;23;20057;-69
2023/11/29 08:27:55;;;;;;;3.53;3.35;;;;;;;1.84;100.00;99450.88;6107710;23;20270;-68
2023/11/29 08:30:22;;;;;;;3.85;3.65;;;;;;;1.95;100.00;99463.44;6079916;23;20267;-67
2023/11/29 08:32:48;;;;;;;3.47;3.35;;;;;;;2.34;100.00;99527.56;6073451;23;20045;-68
2023/11/29 08:35:15;;;;;;;4.00;3.80;;;;;;;1.54;100.00;99406.28;6106356;23;20247;-68
2023/11/29 08:37:41;;;;;;;5.07;4.70;;;;;;;2.43;100.00;99532.41;6082600;23;20503;-68
2023/11/29 08:40:08;;;;;;;4.82;4.30;;;;;;;2.48;100.00;99524.44;6106926;23;20108;-68
2023/11/29 08:42:34;;;;;;;4.40;4.10;;;;;;;2.33;100.00;99498.25;6085031;23;20148;-68
2023/11/29 08:45:01;;;;;;;3.13;3.03;;;;;;;2.12;100.00;99461.03;6104802;23;20025;-68
2023/11/29 08:47:28;;;;;;;9.65;5.28;;;;;;;2.64;100.00;99528.13;6099757;23;20183;-67
2023/11/29 08:49:54;;;;;;;4.03;3.80;;;;;;;2.62;100.00;99523.94;6102850;23;20025;-68
2023/11/29 08:52:22;;;;;;;3.58;3.40;;;;;;;2.79;100.00;99537.91;6087486;23;20030;-67
2023/11/29 08:54:53;;;;;;;4.47;4.20;;;;;;;2.43;100.00;99457.31;6080941;23;20077;-68
2023/11/29 08:57:24;;;;;;;4.93;4.30;;;;;;;2.82;100.00;99482.53;6100894;23;20037;-68
2023/11/29 08:59:51;;;;;;;4.10;3.83;;;;;;;2.81;100.00;99483.47;6085492;23;20251;-68
2023/11/29 09:02:20;;;;;;;4.00;3.80;;;;;;;2.91;100.00;99474.41;6104112;23;20298;-68
2023/11/29 09:04:47;;;;;;;3.90;3.70;;;;;;;2.94;100.00;99455.28;6104192;23;20173;-68
2023/11/29 09:07:14;;;;;;;3.80;3.50;;;;;;;2.89;100.00;99423.56;6083490;23;20363;-69
2023/11/29 09:09:44;;;;;;;4.80;4.53;;;;;;;3.02;100.00;99429.91;6100277;23;20037;-69
2023/11/29 09:12:11;;;;;;;8.23;4.32;;;;;;;3.01;100.00;99425.63;6109090;23;20010;-68
2023/11/29 09:14:40;;;;;;;4.40;4.18;;;;;;;3.08;100.00;99419.28;6102681;23;20420;-68
2023/11/29 09:17:07;;;;;;;5.72;4.13;;;;;;;3.04;100.00;99404.75;6084216;23;20025;-68
2023/11/29 09:19:34;;;;;;;5.75;5.38;;;;;;;3.03;100.00;99397.03;6101772;23;20041;-67
2023/11/29 09:22:03;;;;;;;4.07;3.75;;;;;;;2.79;100.00;99371.28;6106648;23;20424;-68
2023/11/29 09:24:30;;;;;;;4.28;3.90;;;;;;;3.01;100.00;99386.75;6076285;23;20033;-68
2023/11/29 09:26:56;;;;;;;4.13;3.83;;;;;;;3.18;100.00;99404.19;6100568;23;20025;-69
2023/11/29 09:29:28;;;;;;;4.95;4.68;;;;;;;3.35;100.00;99430.25;6080275;23;20033;-68
2023/11/29 09:31:54;;;;;;;3.17;3.08;;;;;;;3.26;100.00;99399.50;6101198;23;20110;-68
2023/11/29 09:34:22;;;;;;;4.45;4.15;;;;;;;3.15;100.00;99389.59;6106259;23;20054;-68
2023/11/29 09:36:49;;;;;;;3.88;3.67;;;;;;;3.28;100.00;99409.81;6104591;23;20456;-68
2023/11/29 09:39:17;;;;;;;4.38;4.05;;;;;;;3.17;100.00;99411.13;6080380;23;20022;-68
2023/11/29 09:41:44;;;;;;;3.90;3.70;;;;;;;3.18;100.00;99432.69;6106322;23;20043;-69
2023/11/29 09:44:12;;;;;;;3.70;3.50;;;;;;;3.17;100.00;99438.81;6085505;23;20072;-69
2023/11/29 09:46:39;;;;;;;4.60;4.30;;;;;;;3.30;100.00;99458.09;6084157;23;20021;-68
2023/11/29 09:49:06;;;;;;;3.47;3.38;;;;;;;3.08;100.00;99397.69;6108507;23;20591;-68
2023/11/29 09:51:33;;;;;;;5.95;5.35;;;;;;;3.02;100.00;99372.03;6106697;23;20025;-67
2023/11/29 09:53:59;;;;;;;3.17;3.08;;;;;;;3.00;100.00;99387.66;6112955;23;20041;-68
2023/11/29 09:56:27;;;;;;;3.40;3.20;;;;;;;2.99;100.00;99380.81;6084419;23;20355;-69
2023/11/29 09:58:55;;;;;;;3.20;3.10;;;;;;;3.29;100.00;99427.91;6109543;23;20330;-68
2023/11/29 10:01:22;;;;;;;6.40;5.90;;;;;;;3.05;100.00;99383.13;6094268;23;20377;-73
2023/11/29 10:04:03;;;;;;;4.53;4.30;;;;;;;3.24;100.00;99423.81;6111389;23;20443;-69
2023/11/29 10:06:30;;;;;;;3.10;3.00;;;;;;;2.66;100.00;99337.25;6083890;23;20022;-67
2023/11/29 10:08:58;;;;;;;10.73;4.63;;;;;;;3.11;100.00;99395.84;6105368;23;20027;-69
2023/11/29 10:11:25;;;;;;;5.75;5.35;;;;;;;3.50;100.00;99439.09;6071780;23;20151;-68
2023/11/29 10:13:52;;;;;;;4.30;3.90;;;;;;;3.09;100.00;99379.50;6105342;23;20018;-68
2023/11/29 10:16:20;;;;;;;4.25;3.95;;;;;;;2.55;100.00;99292.84;6083565;23;20037;-68
2023/11/29 10:18:47;;;;;;;3.72;3.53;;;;;;;3.49;100.00;99445.22;6105904;23;20513;-68
2023/11/29 10:21:14;;;;;;;3.40;3.28;;;;;;;3.46;100.00;99442.72;6106886;23;20033;-68
2023/11/29 10:23:41;;;;;;;5.85;5.00;;;;;;;3.08;100.00;99361.41;6105912;23;20056;-69
2023/11/29 10:26:10;;;;;;;5.22;4.75;;;;;;;3.70;100.00;99461.56;6085811;23;20217;-69
2023/11/29 10:28:37;;;;;;;3.75;3.55;;;;;;;3.32;100.00;99344.78;6107905;23;20603;-68
2023/11/29 10:31:07;;;;;;;4.07;3.88;;;;;;;3.46;100.00;99361.50;6081789;23;20015;-69
2023/11/29 10:33:34;;;;;;;7.13;5.90;;;;;;;3.57;100.00;99362.72;6101853;23;20080;-68
2023/11/29 10:36:02;;;;;;;4.10;3.80;;;;;;;3.70;100.00;99388.09;6086954;23;20091;-68
2023/11/29 10:38:37;;;;;;;3.83;3.63;;;;;;;3.38;100.00;99344.50;6109839;23;20033;-69
2023/11/29 10:41:05;;;;;;;3.83;3.63;;;;;;;2.79;100.00;99270.25;6086354;23;20036;-67
2023/11/29 10:43:34;;;;;;;6.13;5.72;;;;;;;3.12;100.00;99356.03;6101785;23;20490;-69
2023/11/29 10:46:15;;;;;;;3.30;3.20;;;;;;;3.22;100.00;99381.56;6085951;23;20029;-68
2023/11/29 10:48:47;;;;;;;4.28;4.05;;;;;;;3.45;100.00;99438.47;6106769;23;20025;-68
2023/11/29 10:51:13;;;;;;;4.95;4.40;;;;;;;3.57;100.00;99419.78;6080939;23;20444;-69
2023/11/29 10:53:40;;;;;;;3.58;3.38;;;;;;;3.21;100.00;99357.41;6108468;23;20112;-68
2023/11/29 10:56:08;;;;;;;21.77;4.20;;;;;;;3.52;100.00;99411.34;6052461;23;20018;-69
2023/11/29 10:58:46;;;;;;;5.10;4.88;;;;;;;3.19;100.00;99309.97;6095427;23;20132;-67
2023/11/29 11:01:13;;;;;;;4.03;3.83;;;;;;;3.92;100.00;99396.56;6093333;23;20092;-69
2023/11/29 11:03:46;;;;;;;5.93;5.55;;;;;;;4.15;100.00;99379.09;6099103;23;20033;-69
2023/11/29 11:06:22;;;;;;;3.80;3.60;;;;;;;4.25;100.00;99358.72;6084993;23;20046;-68
2023/11/29 11:08:50;;;;;;;5.10;4.60;;;;;;;4.19;100.00;99313.16;6105186;23;20487;-68
2023/11/29 11:11:45;;;;;;;5.38;4.53;;;;;;;4.08;100.00;99279.91;6118865;23;20131;-68
2023/11/29 11:14:23;;;;;;;3.47;3.38;;;;;;;4.12;100.00;99265.00;6084902;23;20143;-68
2023/11/29 11:17:18;;;;;;;4.20;4.00;;;;;;;4.08;100.00;99266.91;6109753;23;20078;-67
2023/11/29 11:19:46;;;;;;;4.20;4.00;;;;;;;3.68;100.00;99200.53;6104929;23;20095;-67
2023/11/29 11:22:22;;;;;;;3.45;3.35;;;;;;;4.08;100.00;99260.88;6084964;23;20469;-67
2023/11/29 11:25:04;;;;;;;4.28;3.97;;;;;;;4.20;100.00;99288.84;6106124;23;20085;-67
2023/11/29 11:27:43;;;;;;;6.00;5.60;;;;;;;4.28;100.00;99307.50;6080475;23;20077;-67
2023/11/29 11:30:19;;;;;;;3.90;3.70;;;;;;;4.24;100.00;99338.88;6110014;23;20021;-66
2023/11/29 11:32:47;;;;;;;4.50;4.10;;;;;;;4.14;100.00;99281.34;6103239;23;20255;-67